Time;durP1;ratioP1;P1;durP2;ratioP2;P2;SDS_P1;SDS_P2;PMS_P1;PMS_P2;Temp;Humidity;BMP_temperature;BMP_pressure;BME280_temperature;BME280_humidity;BME280_pressure;Samples;Min_cycle;Max_cycle;Signal;HPM_P1;HPM_P2
2023/03/11 00:01:41;;;;;;;;;;;13.90;94.90;;;;;;5036932;28;19909;-87
2023/03/11 00:04:07;;;;;;;;;;;13.90;94.90;;;;;;5034764;28;19909;-86
2023/03/11 00:06:35;;;;;;;;;;;13.90;94.90;;;;;;5050795;28;20292;-86
2023/03/11 00:09:04;;;;;;;;;;;13.90;94.90;;;;;;5034952;28;20333;-86
2023/03/11 00:11:30;;;;;;;;;;;13.90;94.90;;;;;;5033716;28;20361;-86
2023/03/11 00:13:55;;;;;;;;;;;13.90;94.90;;;;;;5032995;28;19909;-87
2023/03/11 00:16:24;;;;;;;;;;;13.90;95.00;;;;;;5034116;28;19959;-87
2023/03/11 00:18:50;;;;;;;;;;;13.90;95.00;;;;;;5033555;28;19920;-87
2023/03/11 00:21:17;;;;;;;;;;;13.80;94.90;;;;;;5034424;28;20172;-87
2023/03/11 00:23:47;;;;;;;;;;;13.90;95.00;;;;;;5051513;28;19923;-87
2023/03/11 00:26:15;;;;;;;;;;;13.80;95.00;;;;;;5034123;28;20325;-87
2023/03/11 00:28:41;;;;;;;;;;;13.90;95.00;;;;;;5035050;28;19920;-87
2023/03/11 00:31:07;;;;;;;;;;;13.80;95.00;;;;;;5052723;28;19909;-87
2023/03/11 00:33:32;;;;;;;;;;;13.80;95.00;;;;;;5034693;28;20065;-86
2023/03/11 00:35:58;;;;;;;;;;;13.80;95.00;;;;;;5034695;28;19974;-87
2023/03/11 00:38:24;;;;;;;;;;;13.80;95.00;;;;;;5034523;28;19920;-87
2023/03/11 00:40:52;;;;;;;;;;;13.80;95.00;;;;;;5035641;28;19947;-86
2023/03/11 00:43:21;;;;;;;;;;;13.80;95.00;;;;;;5036433;28;19932;-87
2023/03/11 00:45:50;;;;;;;;;;;13.80;95.00;;;;;;5036375;28;19928;-87
2023/03/11 00:48:15;;;;;;;;;;;13.80;95.10;;;;;;5036868;28;19909;-87
2023/03/11 00:50:42;;;;;;;;;;;13.80;95.00;;;;;;5054784;28;20000;-87
2023/03/11 00:53:07;;;;;;;;;;;13.80;95.10;;;;;;5038024;28;19909;-87
2023/03/11 00:55:33;;;;;;;;;;;13.80;95.10;;;;;;5036679;28;19909;-87
2023/03/11 00:58:00;;;;;;;;;;;13.80;95.10;;;;;;5035965;28;19970;-86
2023/03/11 01:00:26;;;;;;;;;;;13.80;95.10;;;;;;5035446;28;19939;-86
2023/03/11 01:02:55;;;;;;;;;;;13.80;95.10;;;;;;5034506;28;19913;-86
2023/03/11 01:05:25;;;;;;;;;;;13.80;95.10;;;;;;5051707;28;20248;-86
2023/03/11 01:07:50;;;;;;;;;;;13.80;95.10;;;;;;5051040;28;19909;-86
2023/03/11 01:10:16;;;;;;;;;;;13.80;95.10;;;;;;5032833;28;19919;-86
2023/03/11 01:12:45;;;;;;;;;;;13.80;95.00;;;;;;5032659;28;19940;-86
2023/03/11 01:15:16;;;;;;;;;;;13.70;95.00;;;;;;5007683;28;20470;-87
2023/03/11 01:17:42;;;;;;;;;;;13.80;95.00;;;;;;5034685;28;19982;-87
2023/03/11 01:20:11;;;;;;;;;;;13.70;95.00;;;;;;5040335;28;19912;-87
2023/03/11 01:22:36;;;;;;;;;;;13.80;95.00;;;;;;5037009;28;20004;-87
2023/03/11 01:25:05;;;;;;;;;;;13.80;95.00;;;;;;5055641;28;19973;-87
2023/03/11 01:27:34;;;;;;;;;;;13.70;94.90;;;;;;5054094;28;20404;-86
2023/03/11 01:29:59;;;;;;;;;;;13.70;94.90;;;;;;5035030;28;20007;-87
2023/03/11 01:32:25;;;;;;;;;;;13.70;94.90;;;;;;5036685;28;20322;-87
2023/03/11 01:34:50;;;;;;;;;;;13.70;94.90;;;;;;5053246;28;19909;-87
2023/03/11 01:37:19;;;;;;;;;;;13.70;94.90;;;;;;5038282;28;19908;-87
2023/03/11 01:39:45;;;;;;;;;;;13.70;94.90;;;;;;5055808;28;19920;-87
2023/03/11 01:42:13;;;;;;;;;;;13.70;94.90;;;;;;5039352;28;19908;-86
2023/03/11 01:44:39;;;;;;;;;;;13.70;95.00;;;;;;5056850;28;20019;-86
2023/03/11 01:47:05;;;;;;;;;;;13.70;94.90;;;;;;5037493;28;20333;-86
2023/03/11 01:49:33;;;;;;;;;;;13.70;94.90;;;;;;5037173;28;19943;-86
2023/03/11 01:52:02;;;;;;;;;;;13.70;94.90;;;;;;5056591;28;20287;-86
2023/03/11 01:54:32;;;;;;;;;;;13.70;94.90;;;;;;5038911;28;20069;-86
2023/03/11 01:57:06;;;;;;;;;;;13.70;94.90;;;;;;5038635;28;20019;-86
2023/03/11 01:59:35;;;;;;;;;;;13.70;94.90;;;;;;5038512;28;20007;-86
2023/03/11 02:02:06;;;;;;;;;;;13.70;94.90;;;;;;5037768;28;19949;-86
2023/03/11 02:04:33;;;;;;;;;;;13.70;94.90;;;;;;5056138;28;20171;-86
2023/03/11 02:06:59;;;;;;;;;;;13.70;94.90;;;;;;5038417;28;20233;-86
2023/03/11 02:09:25;;;;;;;;;;;13.70;94.90;;;;;;5038856;28;19916;-86
2023/03/11 02:11:51;;;;;;;;;;;13.70;94.90;;;;;;5038219;28;20198;-86
2023/03/11 02:14:17;;;;;;;;;;;13.70;94.80;;;;;;5039292;28;20011;-86
2023/03/11 02:16:43;;;;;;;;;;;13.70;94.90;;;;;;5039675;28;20007;-86
2023/03/11 02:19:32;;;;;;;;;;;13.70;94.90;;;;;;5038834;28;19971;-86
2023/03/11 02:22:01;;;;;;;;;;;13.70;94.80;;;;;;5037877;28;20186;-86
2023/03/11 02:24:35;;;;;;;;;;;13.70;94.80;;;;;;5038722;28;19996;-86
2023/03/11 02:27:09;;;;;;;;;;;13.60;94.80;;;;;;5037795;28;20329;-86
2023/03/11 02:29:39;;;;;;;;;;;13.60;94.80;;;;;;5037843;28;20169;-86
2023/03/11 02:32:11;;;;;;;;;;;13.60;94.80;;;;;;5038514;28;20242;-86
2023/03/11 02:34:40;;;;;;;;;;;13.60;94.80;;;;;;5038216;28;20305;-86
2023/03/11 02:37:10;;;;;;;;;;;13.60;94.80;;;;;;5040680;28;19909;-86
2023/03/11 02:39:37;;;;;;;;;;;13.60;94.80;;;;;;5040065;28;19921;-86
2023/03/11 02:42:07;;;;;;;;;;;13.60;94.80;;;;;;5040998;28;20267;-86
2023/03/11 02:44:36;;;;;;;;;;;13.60;94.70;;;;;;5039891;28;20290;-86
2023/03/11 02:47:02;;;;;;;;;;;13.60;94.80;;;;;;5038815;28;19955;-86
2023/03/11 02:49:28;;;;;;;;;;;13.60;94.80;;;;;;5038936;28;19968;-86
2023/03/11 02:51:54;;;;;;;;;;;13.60;94.70;;;;;;5039421;28;20171;-86
2023/03/11 02:54:19;;;;;;;;;;;13.60;94.70;;;;;;5040114;28;20255;-86
2023/03/11 02:56:48;;;;;;;;;;;13.60;94.70;;;;;;5039488;28;19912;-86
2023/03/11 02:59:13;;;;;;;;;;;13.60;94.70;;;;;;5038926;28;19944;-86
2023/03/11 03:01:38;;;;;;;;;;;13.60;94.70;;;;;;5040783;28;19947;-86
2023/03/11 03:04:07;;;;;;;;;;;13.60;94.70;;;;;;5040502;28;20000;-86
2023/03/11 03:06:33;;;;;;;;;;;13.50;94.70;;;;;;5040135;28;19982;-87
2023/03/11 03:08:58;;;;;;;;;;;13.50;94.70;;;;;;5039589;28;20282;-86
2023/03/11 03:11:27;;;;;;;;;;;13.50;94.70;;;;;;5041571;28;19994;-87
2023/03/11 03:13:52;;;;;;;;;;;13.50;94.70;;;;;;5058007;28;19909;-86
2023/03/11 03:16:18;;;;;;;;;;;13.50;94.60;;;;;;5041182;28;19909;-86
2023/03/11 03:18:44;;;;;;;;;;;13.50;94.70;;;;;;5040019;28;19913;-86
2023/03/11 03:21:12;;;;;;;;;;;13.50;94.70;;;;;;5058043;28;19974;-86
2023/03/11 03:23:41;;;;;;;;;;;13.50;94.70;;;;;;5039284;28;19909;-86
2023/03/11 03:26:13;;;;;;;;;;;13.50;94.70;;;;;;5056842;28;20365;-86
2023/03/11 03:28:42;;;;;;;;;;;13.50;94.70;;;;;;5039716;28;19999;-86
2023/03/11 03:31:08;;;;;;;;;;;13.40;94.70;;;;;;5040875;28;19917;-87
2023/03/11 03:33:35;;;;;;;;;;;13.40;94.70;;;;;;5051257;28;19963;-86
2023/03/11 03:36:08;;;;;;;;;;;13.50;94.70;;;;;;5040372;28;20003;-86
2023/03/11 03:38:34;;;;;;;;;;;13.40;94.60;;;;;;5039498;28;20320;-86
2023/03/11 03:41:03;;;;;;;;;;;13.40;94.60;;;;;;5038859;28;19912;-86
2023/03/11 03:43:32;;;;;;;;;;;13.40;94.60;;;;;;5039764;28;19970;-86
2023/03/11 03:46:02;;;;;;;;;;;13.40;94.60;;;;;;5039602;28;19919;-86
2023/03/11 03:48:28;;;;;;;;;;;13.40;94.60;;;;;;5039902;28;19948;-86
2023/03/11 03:50:53;;;;;;;;;;;13.40;94.60;;;;;;5039300;28;20043;-86
2023/03/11 03:53:19;;;;;;;;;;;13.40;94.60;;;;;;5039196;28;19963;-86
2023/03/11 03:55:45;;;;;;;;;;;13.40;94.60;;;;;;5038292;28;19920;-87
2023/03/11 03:58:13;;;;;;;;;;;13.40;94.60;;;;;;5039013;28;19974;-86
2023/03/11 04:00:42;;;;;;;;;;;13.40;94.50;;;;;;5039445;28;19913;-86
2023/03/11 04:03:10;;;;;;;;;;;13.40;94.50;;;;;;5037731;28;20275;-86
2023/03/11 04:05:36;;;;;;;;;;;13.40;94.50;;;;;;5038040;28;19917;-86
2023/03/11 04:08:04;;;;;;;;;;;13.40;94.50;;;;;;5038090;28;19936;-86
2023/03/11 04:10:33;;;;;;;;;;;13.40;94.80;;;;;;5037924;28;19909;-86
2023/03/11 04:13:01;;;;;;;;;;;13.40;94.50;;;;;;5037983;28;20290;-86
2023/03/11 04:15:30;;;;;;;;;;;13.40;94.40;;;;;;5056106;28;19909;-86
2023/03/11 04:17:55;;;;;;;;;;;13.40;94.40;;;;;;5039339;28;19915;-86
2023/03/11 04:20:21;;;;;;;;;;;13.30;94.40;;;;;;5037092;28;19913;-86
2023/03/11 04:22:46;;;;;;;;;;;13.40;94.40;;;;;;5038223;28;20205;-86
2023/03/11 04:25:12;;;;;;;;;;;13.40;94.40;;;;;;5038559;28;19921;-86
2023/03/11 04:27:41;;;;;;;;;;;13.40;94.40;;;;;;5055189;28;19998;-86
2023/03/11 04:30:07;;;;;;;;;;;13.30;94.30;;;;;;5037572;28;19976;-86
2023/03/11 04:32:36;;;;;;;;;;;13.30;94.30;;;;;;5037733;28;19909;-87
2023/03/11 04:35:05;;;;;;;;;;;13.30;94.30;;;;;;5036750;28;19909;-86
2023/03/11 04:37:30;;;;;;;;;;;13.30;94.30;;;;;;5036911;28;19917;-86
2023/03/11 04:39:56;;;;;;;;;;;13.30;94.30;;;;;;5037205;28;19927;-86
2023/03/11 04:42:22;;;;;;;;;;;13.30;94.30;;;;;;5037891;28;19913;-86
2023/03/11 04:44:50;;;;;;;;;;;13.30;94.30;;;;;;5036334;28;19919;-86
2023/03/11 04:47:20;;;;;;;;;;;13.30;94.30;;;;;;5036311;28;19905;-86
2023/03/11 04:49:46;;;;;;;;;;;13.30;94.20;;;;;;5037314;28;19948;-86
2023/03/11 04:52:11;;;;;;;;;;;13.30;94.20;;;;;;5058439;28;19975;-86
2023/03/11 04:54:40;;;;;;;;;;;13.30;94.30;;;;;;5042640;28;19948;-86
2023/03/11 04:57:09;;;;;;;;;;;13.30;94.20;;;;;;5059679;28;19909;-86
2023/03/11 04:59:37;;;;;;;;;;;13.30;94.20;;;;;;5043560;28;19923;-87
2023/03/11 05:02:06;;;;;;;;;;;13.30;94.20;;;;;;5043258;28;19935;-86
2023/03/11 05:04:32;;;;;;;;;;;13.30;94.20;;;;;;5043877;28;20224;-86
2023/03/11 05:07:00;;;;;;;;;;;13.30;94.20;;;;;;5043543;28;20406;-86
2023/03/11 05:09:29;;;;;;;;;;;13.30;94.20;;;;;;5045483;28;20179;-87
2023/03/11 05:11:57;;;;;;;;;;;13.30;94.20;;;;;;5045684;28;20281;-86
2023/03/11 05:14:26;;;;;;;;;;;13.30;94.20;;;;;;5044774;28;19940;-86
2023/03/11 05:16:52;;;;;;;;;;;13.30;94.20;;;;;;5044486;28;19909;-86
2023/03/11 05:19:29;;;;;;;;;;;13.30;94.10;;;;;;5042755;28;19924;-86
2023/03/11 05:21:55;;;;;;;;;;;13.20;94.10;;;;;;5044596;28;19995;-86
2023/03/11 05:24:26;;;;;;;;;;;13.20;94.10;;;;;;5043687;28;20004;-86
2023/03/11 05:26:52;;;;;;;;;;;13.20;94.10;;;;;;5043418;28;20019;-86
2023/03/11 05:29:18;;;;;;;;;;;13.20;94.10;;;;;;5061101;28;19913;-86
2023/03/11 05:31:43;;;;;;;;;;;13.20;94.10;;;;;;5043240;28;19916;-87
2023/03/11 05:34:09;;;;;;;;;;;13.20;94.10;;;;;;5044199;28;19909;-87
2023/03/11 05:36:38;;;;;;;;;;;13.20;94.10;;;;;;5045498;28;19909;-87
2023/03/11 05:39:03;;;;;;;;;;;13.20;94.10;;;;;;5062005;28;19908;-86
2023/03/11 05:41:29;;;;;;;;;;;13.20;94.10;;;;;;5042665;28;19974;-87
2023/03/11 05:43:54;;;;;;;;;;;13.20;94.10;;;;;;5043255;28;19970;-86
2023/03/11 05:46:24;;;;;;;;;;;13.20;94.10;;;;;;5042042;28;19909;-87
2023/03/11 05:48:52;;;;;;;;;;;13.20;94.00;;;;;;5040854;28;19919;-86
2023/03/11 05:51:18;;;;;;;;;;;13.20;94.10;;;;;;5042842;28;19925;-86
2023/03/11 05:53:47;;;;;;;;;;;13.20;94.00;;;;;;5059844;28;19908;-86
2023/03/11 05:56:13;;;;;;;;;;;13.20;94.00;;;;;;5042155;28;20005;-87
2023/03/11 05:58:42;;;;;;;;;;;13.20;94.00;;;;;;5039845;28;20336;-87
2023/03/11 06:01:12;;;;;;;;;;;13.20;93.90;;;;;;5041799;28;20119;-87
2023/03/11 06:03:38;;;;;;;;;;;13.20;94.00;;;;;;5038575;28;20030;-87
2023/03/11 06:06:07;;;;;;;;;;;13.20;93.90;;;;;;5038818;28;19919;-87
2023/03/11 06:08:35;;;;;;;;;;;13.20;93.90;;;;;;5039602;28;19959;-87
2023/03/11 06:11:02;;;;;;;;;;;13.20;93.90;;;;;;5055643;28;19909;-87
2023/03/11 06:13:31;;;;;;;;;;;13.20;93.80;;;;;;5037231;28;19913;-87
2023/03/11 06:15:56;;;;;;;;;;;13.20;93.80;;;;;;5036420;28;19958;-87
2023/03/11 06:18:22;;;;;;;;;;;13.20;93.80;;;;;;5036224;28;20119;-87
2023/03/11 06:20:50;;;;;;;;;;;13.20;93.70;;;;;;5037411;28;19983;-87
2023/03/11 06:23:16;;;;;;;;;;;13.20;93.70;;;;;;5035587;28;19956;-87
2023/03/11 06:25:42;;;;;;;;;;;13.20;93.60;;;;;;5037045;28;19982;-87
2023/03/11 06:28:08;;;;;;;;;;;13.20;93.60;;;;;;5036380;28;20035;-87
2023/03/11 06:30:34;;;;;;;;;;;13.20;93.50;;;;;;5036850;28;19909;-87
2023/03/11 06:32:59;;;;;;;;;;;13.30;93.40;;;;;;5036949;28;19916;-87
2023/03/11 06:35:25;;;;;;;;;;;13.30;93.30;;;;;;5035597;28;19909;-87
2023/03/11 06:37:50;;;;;;;;;;;13.30;93.20;;;;;;5053643;28;20234;-87
2023/03/11 06:40:19;;;;;;;;;;;13.40;93.10;;;;;;5036471;28;19920;-87
2023/03/11 06:42:46;;;;;;;;;;;13.50;92.90;;;;;;5035684;28;19908;-87
2023/03/11 06:45:11;;;;;;;;;;;13.60;92.60;;;;;;5035973;28;19920;-87
2023/03/11 06:47:37;;;;;;;;;;;13.70;92.20;;;;;;5035087;28;19909;-87
2023/03/11 06:50:05;;;;;;;;;;;13.70;91.90;;;;;;5053246;28;19940;-87
2023/03/11 06:52:34;;;;;;;;;;;13.70;91.90;;;;;;5036301;28;20007;-87
2023/03/11 06:54:59;;;;;;;;;;;13.60;91.90;;;;;;5036096;28;20103;-87
2023/03/11 06:57:29;;;;;;;;;;;13.60;91.90;;;;;;5036363;28;20031;-87
2023/03/11 06:59:55;;;;;;;;;;;13.60;91.90;;;;;;5036985;28;20071;-87
2023/03/11 07:02:20;;;;;;;;;;;13.80;91.90;;;;;;5054358;28;20015;-87
2023/03/11 07:04:49;;;;;;;;;;;14.10;91.00;;;;;;5038159;28;19909;-87
2023/03/11 07:07:19;;;;;;;;;;;14.40;90.20;;;;;;5037308;28;19909;-87
2023/03/11 07:09:44;;;;;;;;;;;14.50;89.40;;;;;;5035843;28;19992;-87
2023/03/11 07:12:10;;;;;;;;;;;15.30;85.40;;;;;;5036990;28;20046;-87
2023/03/11 07:14:35;;;;;;;;;;;15.30;82.80;;;;;;5034172;28;19920;-88
2023/03/11 07:17:04;;;;;;;;;;;16.00;80.70;;;;;;5036814;28;19905;-87
2023/03/11 07:19:32;;;;;;;;;;;16.80;74.70;;;;;;5036437;28;19908;-87
2023/03/11 07:21:58;;;;;;;;;;;17.60;70.20;;;;;;5037019;28;19956;-87
2023/03/11 07:24:24;;;;;;;;;;;18.30;65.90;;;;;;5035068;28;19944;-87
2023/03/11 07:26:49;;;;;;;;;;;18.80;62.50;;;;;;5034029;28;20290;-88
2023/03/11 07:29:19;;;;;;;;;;;19.10;60.10;;;;;;5035519;28;19909;-88
2023/03/11 07:31:44;;;;;;;;;;;19.60;58.90;;;;;;5033740;28;19920;-88
2023/03/11 07:34:13;;;;;;;;;;;20.00;57.70;;;;;;5035801;28;19936;-88
2023/03/11 07:36:39;;;;;;;;;;;20.50;56.80;;;;;;5035241;28;20279;-88
2023/03/11 07:39:05;;;;;;;;;;;20.90;55.60;;;;;;5035083;28;19925;-88
2023/03/11 07:41:33;;;;;;;;;;;21.20;54.70;;;;;;5033921;28;20211;-87
2023/03/11 07:44:02;;;;;;;;;;;21.60;54.00;;;;;;5033419;28;20002;-87
2023/03/11 07:46:32;;;;;;;;;;;21.60;53.30;;;;;;5034636;28;19916;-87
2023/03/11 07:48:58;;;;;;;;;;;21.80;53.20;;;;;;5033877;28;19909;-88
2023/03/11 07:51:27;;;;;;;;;;;22.20;52.40;;;;;;5033778;28;19909;-87
2023/03/11 07:53:54;;;;;;;;;;;22.50;51.80;;;;;;5034177;28;20233;-87
2023/03/11 07:56:22;;;;;;;;;;;22.60;51.30;;;;;;5032770;28;19935;-87
2023/03/11 07:58:48;;;;;;;;;;;22.60;50.90;;;;;;5032605;28;20269;-87
2023/03/11 08:01:18;;;;;;;;;;;22.60;50.70;;;;;;5030976;28;20244;-87
2023/03/11 08:03:44;;;;;;;;;;;22.70;50.60;;;;;;5033251;28;20068;-87
2023/03/11 08:06:17;;;;;;;;;;;23.00;50.20;;;;;;5034537;28;19976;-87
2023/03/11 08:08:45;;;;;;;;;;;23.40;49.60;;;;;;5043369;28;20384;-87
2023/03/11 08:11:12;;;;;;;;;;;23.10;49.10;;;;;;5033753;28;19916;-87
2023/03/11 08:13:38;;;;;;;;;;;22.70;49.70;;;;;;5032778;28;19946;-87
2023/03/11 08:16:10;;;;;;;;;;;23.30;49.40;;;;;;5032957;28;19909;-87
2023/03/11 08:18:38;;;;;;;;;;;23.50;48.90;;;;;;5049628;28;20004;-87
2023/03/11 08:21:04;;;;;;;;;;;23.70;48.50;;;;;;5050219;28;20006;-87
2023/03/11 08:23:30;;;;;;;;;;;24.30;47.90;;;;;;5033209;28;20184;-87
2023/03/11 08:25:55;;;;;;;;;;;24.00;47.50;;;;;;5032564;28;20326;-87
2023/03/11 08:28:21;;;;;;;;;;;23.80;47.90;;;;;;5033845;28;20311;-87
2023/03/11 08:30:47;;;;;;;;;;;24.20;47.60;;;;;;5033422;28;19920;-87
2023/03/11 08:33:12;;;;;;;;;;;24.60;47.10;;;;;;5034541;28;20007;-87
2023/03/11 08:35:41;;;;;;;;;;;25.10;46.60;;;;;;5031745;28;20289;-87
2023/03/11 08:38:07;;;;;;;;;;;25.40;46.20;;;;;;5034310;28;20233;-87
2023/03/11 08:40:32;;;;;;;;;;;25.60;45.80;;;;;;5049923;28;20344;-87
2023/03/11 08:42:58;;;;;;;;;;;25.80;45.50;;;;;;5030878;28;20025;-87
2023/03/11 08:45:26;;;;;;;;;;;25.90;45.20;;;;;;5031409;28;19913;-87
2023/03/11 08:47:51;;;;;;;;;;;26.00;45.00;;;;;;5032668;28;19999;-87
2023/03/11 08:50:17;;;;;;;;;;;26.00;44.90;;;;;;5050832;28;20281;-87
2023/03/11 08:52:46;;;;;;;;;;;26.10;44.80;;;;;;5034108;28;19908;-87
2023/03/11 08:55:23;;;;;;;;;;;26.20;44.70;;;;;;5050316;28;19908;-87
2023/03/11 08:57:52;;;;;;;;;;;26.30;44.60;;;;;;5034442;28;19909;-86
2023/03/11 09:00:21;;;;;;;;;;;26.40;44.50;;;;;;5033637;28;20020;-87
2023/03/11 09:02:50;;;;;;;;;;;26.60;44.30;;;;;;5033467;28;19909;-87
2023/03/11 09:05:19;;;;;;;;;;;26.70;44.10;;;;;;5034027;28;19909;-87
2023/03/11 09:07:44;;;;;;;;;;;26.50;44.10;;;;;;5035058;28;20294;-87
2023/03/11 09:10:16;;;;;;;;;;;26.80;44.00;;;;;;5035356;28;19920;-87
2023/03/11 09:12:42;;;;;;;;;;;26.90;43.90;;;;;;5033246;28;19909;-87
2023/03/11 09:15:08;;;;;;;;;;;27.00;43.80;;;;;;5034361;28;19917;-88
2023/03/11 09:17:36;;;;;;;;;;;27.00;43.60;;;;;;5033682;28;19932;-87
2023/03/11 09:20:05;;;;;;;;;;;27.00;43.50;;;;;;5034844;28;19939;-87
2023/03/11 09:22:34;;;;;;;;;;;26.80;43.60;;;;;;5035916;28;20313;-87
2023/03/11 09:25:00;;;;;;;;;;;26.50;43.60;;;;;;5034471;28;19916;-87
2023/03/11 09:27:28;;;;;;;;;;;25.80;43.50;;;;;;5048984;28;20109;-86
2023/03/11 09:29:54;;;;;;;;;;;24.60;44.70;;;;;;5031765;28;20164;-86
2023/03/11 09:32:19;;;;;;;;;;;23.40;45.60;;;;;;5031889;28;19927;-86
2023/03/11 09:34:48;;;;;;;;;;;22.30;46.60;;;;;;5033148;28;19909;-86
2023/03/11 09:37:16;;;;;;;;;;;21.50;47.60;;;;;;5032650;28;20004;-86
2023/03/11 09:39:45;;;;;;;;;;;20.80;48.50;;;;;;5034550;28;19909;-88
2023/03/11 09:42:24;;;;;;;;;;;20.30;49.20;;;;;;5053165;28;20246;-86
2023/03/11 09:44:55;;;;;;;;;;;20.00;49.80;;;;;;5037551;28;19917;-86
2023/03/11 09:47:21;;;;;;;;;;;21.20;50.00;;;;;;5035905;28;20169;-86
2023/03/11 09:50:19;;;;;;;;;;;21.00;48.90;;;;;;5035597;28;19923;-86
2023/03/11 09:52:52;;;;;;;;;;;20.40;49.40;;;;;;4998122;28;19920;-86
2023/03/11 09:55:27;;;;;;;;;;;19.70;50.20;;;;;;5034861;28;19917;-86
2023/03/11 09:57:53;;;;;;;;;;;19.20;50.90;;;;;;5033972;28;19940;-86
2023/03/11 10:00:22;;;;;;;;;;;18.90;51.50;;;;;;5035033;28;19967;-86
2023/03/11 10:02:48;;;;;;;;;;;19.90;51.40;;;;;;5033037;28;20144;-86
2023/03/11 10:05:25;;;;;;;;;;;20.30;50.30;;;;;;5032999;28;20015;-86
2023/03/11 10:08:10;;;;;;;;;;;20.50;49.90;;;;;;5051851;28;19994;-86
2023/03/11 10:10:40;;;;;;;;;;;20.60;49.70;;;;;;5029231;28;19909;-86
2023/03/11 10:13:33;;;;;;;;;;;20.50;49.80;;;;;;5050725;28;20034;-86
2023/03/11 10:16:17;;;;;;;;;;;20.30;50.00;;;;;;5027288;28;19919;-85
2023/03/11 10:18:48;;;;;;;;;;;20.10;50.30;;;;;;5031082;28;20325;-86
2023/03/11 10:21:17;;;;;;;;;;;19.80;50.70;;;;;;5032032;28;20074;-86
2023/03/11 10:23:55;;;;;;;;;;;19.50;51.20;;;;;;5032723;28;19909;-85
2023/03/11 10:26:44;;;;;;;;;;;19.20;51.60;;;;;;5033041;28;19916;-85
2023/03/11 10:29:16;;;;;;;;;;;19.00;52.00;;;;;;5033567;28;19963;-86
2023/03/11 10:31:45;;;;;;;;;;;18.80;52.40;;;;;;5051339;28;19908;-86
2023/03/11 10:34:33;;;;;;;;;;;18.70;52.70;;;;;;5052605;28;19995;-86
2023/03/11 10:37:13;;;;;;;;;;;18.50;52.90;;;;;;5032370;28;19913;-86
2023/03/11 10:39:44;;;;;;;;;;;18.40;53.40;;;;;;5033207;28;19910;-86
2023/03/11 10:42:15;;;;;;;;;;;18.20;53.70;;;;;;5031833;28;19915;-86
2023/03/11 10:44:41;;;;;;;;;;;18.10;54.10;;;;;;5032098;28;20056;-86
2023/03/11 10:47:21;;;;;;;;;;;18.10;54.40;;;;;;5033078;28;19913;-86
2023/03/11 10:49:47;;;;;;;;;;;18.00;54.60;;;;;;5033685;28;19916;-86
2023/03/11 10:52:13;;;;;;;;;;;18.00;54.70;;;;;;5031499;28;19909;-86
2023/03/11 10:54:46;;;;;;;;;;;17.90;54.80;;;;;;5034612;28;19960;-86
2023/03/11 10:57:21;;;;;;;;;;;17.90;54.90;;;;;;5034354;28;19909;-86
2023/03/11 10:59:51;;;;;;;;;;;17.90;55.00;;;;;;5036363;28;19928;-86
2023/03/11 11:02:24;;;;;;;;;;;17.80;55.00;;;;;;5052567;28;19935;-86
2023/03/11 11:05:02;;;;;;;;;;;17.80;54.90;;;;;;5033041;28;20281;-86
2023/03/11 11:07:29;;;;;;;;;;;17.80;54.90;;;;;;5031697;28;20275;-86
2023/03/11 11:10:11;;;;;;;;;;;17.80;54.80;;;;;;5030163;28;19909;-86
2023/03/11 11:12:57;;;;;;;;;;;17.70;54.80;;;;;;5031727;28;19916;-86
2023/03/11 11:15:23;;;;;;;;;;;17.70;54.80;;;;;;5032878;28;19915;-85
2023/03/11 11:17:49;;;;;;;;;;;17.60;54.70;;;;;;5029976;28;20206;-85
2023/03/11 11:20:16;;;;;;;;;;;17.60;54.90;;;;;;5030212;28;20012;-85
2023/03/11 11:23:02;;;;;;;;;;;17.60;55.10;;;;;;5031143;28;19909;-85
2023/03/11 11:25:40;;;;;;;;;;;17.50;55.20;;;;;;5031274;28;19935;-85
2023/03/11 11:28:17;;;;;;;;;;;17.50;55.40;;;;;;5030372;28;20329;-85
2023/03/11 11:30:53;;;;;;;;;;;17.50;55.40;;;;;;5029398;28;19909;-85
2023/03/11 11:33:22;;;;;;;;;;;17.40;55.50;;;;;;5028378;28;20336;-85
2023/03/11 11:35:53;;;;;;;;;;;17.40;55.70;;;;;;5027394;28;20015;-85
2023/03/11 11:38:22;;;;;;;;;;;17.30;55.90;;;;;;5028433;28;19944;-85
2023/03/11 11:40:51;;;;;;;;;;;17.30;56.00;;;;;;5028474;28;20027;-85
2023/03/11 11:43:36;;;;;;;;;;;17.30;56.30;;;;;;5029690;28;19917;-85
2023/03/11 11:46:09;;;;;;;;;;;17.20;56.30;;;;;;5031064;28;19909;-85
2023/03/11 11:48:43;;;;;;;;;;;17.20;56.50;;;;;;5049215;28;20195;-85
2023/03/11 11:51:15;;;;;;;;;;;17.10;56.70;;;;;;5032130;28;20375;-85
2023/03/11 11:53:43;;;;;;;;;;;17.10;57.00;;;;;;5030881;28;19908;-86
2023/03/11 11:56:08;;;;;;;;;;;17.10;57.10;;;;;;5030960;28;19909;-85
2023/03/11 11:58:37;;;;;;;;;;;17.10;57.20;;;;;;5029485;28;19916;-85
2023/03/11 12:01:06;;;;;;;;;;;17.10;57.30;;;;;;5027687;28;20206;-85
2023/03/11 12:03:42;;;;;;;;;;;17.10;57.40;;;;;;5028853;28;20164;-85
2023/03/11 12:06:14;;;;;;;;;;;17.10;57.50;;;;;;5029342;28;19932;-85
2023/03/11 12:08:50;;;;;;;;;;;17.00;57.60;;;;;;5030057;28;20054;-86
2023/03/11 12:11:36;;;;;;;;;;;17.00;57.90;;;;;;5027770;28;19912;-85
2023/03/11 12:14:27;;;;;;;;;;;17.00;57.90;;;;;;5028612;28;20115;-86
2023/03/11 12:17:03;;;;;;;;;;;16.90;58.00;;;;;;4990012;28;20070;-85
2023/03/11 12:19:29;;;;;;;;;;;16.90;58.20;;;;;;5027830;28;19917;-85
2023/03/11 12:22:13;;;;;;;;;;;16.90;58.30;;;;;;5046175;28;19966;-85
2023/03/11 12:24:58;;;;;;;;;;;16.90;58.40;;;;;;5031677;28;19987;-86
2023/03/11 12:27:29;;;;;;;;;;;16.90;58.50;;;;;;5029705;28;20055;-85
2023/03/11 12:29:56;;;;;;;;;;;16.80;58.60;;;;;;5046546;28;20267;-86
2023/03/11 12:32:28;;;;;;;;;;;16.80;58.70;;;;;;5029548;28;19909;-85
2023/03/11 12:35:21;;;;;;;;;;;16.80;59.00;;;;;;5008148;28;19909;-85
2023/03/11 12:37:54;;;;;;;;;;;16.70;58.90;;;;;;5005476;28;20247;-85
2023/03/11 12:40:38;;;;;;;;;;;16.70;59.00;;;;;;5008049;28;19924;-85
2023/03/11 12:43:21;;;;;;;;;;;16.70;59.00;;;;;;5007078;28;19962;-85
2023/03/11 12:45:48;;;;;;;;;;;16.70;59.20;;;;;;5009148;28;20128;-85
2023/03/11 12:48:30;;;;;;;;;;;16.60;59.20;;;;;;5043365;28;19909;-85
2023/03/11 12:50:56;;;;;;;;;;;16.60;59.20;;;;;;5026091;28;20290;-85
2023/03/11 12:53:40;;;;;;;;;;;16.60;59.40;;;;;;5025503;28;19928;-85
2023/03/11 12:56:18;;;;;;;;;;;16.60;59.40;;;;;;5034432;28;19982;-85
2023/03/11 12:58:53;;;;;;;;;;;16.60;59.40;;;;;;5022727;28;19909;-85
2023/03/11 13:01:24;;;;;;;;;;;16.60;59.40;;;;;;5041970;28;19927;-85
2023/03/11 13:03:59;;;;;;;;;;;16.60;59.40;;;;;;5024035;28;19920;-85
2023/03/11 13:06:31;;;;;;;;;;;16.50;59.40;;;;;;5022426;28;19935;-85
2023/03/11 13:09:00;;;;;;;;;;;16.50;59.50;;;;;;5041321;28;20109;-85
2023/03/11 13:11:40;;;;;;;;;;;16.50;59.50;;;;;;5025222;28;19950;-85
2023/03/11 13:14:21;;;;;;;;;;;16.50;59.60;;;;;;5029995;28;19920;-85
2023/03/11 13:16:49;;;;;;;;;;;16.50;59.70;;;;;;5030952;28;20168;-86
2023/03/11 13:19:27;;;;;;;;;;;16.50;59.60;;;;;;5049023;28;19920;-85
2023/03/11 13:21:53;;;;;;;;;;;16.50;59.60;;;;;;5032994;28;20143;-85
2023/03/11 13:24:24;;;;;;;;;;;16.40;59.60;;;;;;5033252;28;20268;-85
2023/03/11 13:26:55;;;;;;;;;;;16.40;59.50;;;;;;5048046;28;20012;-85
2023/03/11 13:29:22;;;;;;;;;;;16.50;59.70;;;;;;5031258;28;19959;-85
2023/03/11 13:31:58;;;;;;;;;;;16.50;59.60;;;;;;5031083;28;19999;-85
2023/03/11 13:34:27;;;;;;;;;;;16.50;59.70;;;;;;5031111;28;19943;-85
2023/03/11 13:36:55;;;;;;;;;;;16.40;59.70;;;;;;5031236;28;20263;-85
2023/03/11 13:39:21;;;;;;;;;;;16.40;59.90;;;;;;5029281;28;19920;-85
2023/03/11 13:41:46;;;;;;;;;;;16.40;60.10;;;;;;5030641;28;20092;-85
2023/03/11 13:44:15;;;;;;;;;;;16.40;60.40;;;;;;5028475;28;19916;-85
2023/03/11 13:46:42;;;;;;;;;;;16.30;60.60;;;;;;5029509;28;20286;-85
2023/03/11 13:49:16;;;;;;;;;;;16.30;60.80;;;;;;5027612;28;19912;-85
2023/03/11 13:51:47;;;;;;;;;;;16.20;61.10;;;;;;5027350;28;20122;-85
2023/03/11 13:54:22;;;;;;;;;;;16.20;61.30;;;;;;5045642;28;19909;-85
2023/03/11 13:56:52;;;;;;;;;;;16.20;61.70;;;;;;5047330;28;19909;-85
2023/03/11 13:59:21;;;;;;;;;;;16.10;61.90;;;;;;5029891;28;19966;-85
2023/03/11 14:01:50;;;;;;;;;;;16.10;62.40;;;;;;5027578;28;19928;-86
2023/03/11 14:04:19;;;;;;;;;;;16.10;62.50;;;;;;5025797;28;19909;-86
2023/03/11 14:06:45;;;;;;;;;;;16.10;62.70;;;;;;5045796;28;19984;-86
2023/03/11 14:09:18;;;;;;;;;;;16.00;63.00;;;;;;5027973;28;19967;-86
2023/03/11 14:11:47;;;;;;;;;;;16.00;62.90;;;;;;5028007;28;20109;-86
2023/03/11 14:14:31;;;;;;;;;;;16.00;63.10;;;;;;5025889;28;19917;-86
2023/03/11 14:17:00;;;;;;;;;;;16.00;63.00;;;;;;5025766;28;20148;-86
2023/03/11 14:19:27;;;;;;;;;;;15.90;63.00;;;;;;5045483;28;19909;-86
2023/03/11 14:21:54;;;;;;;;;;;15.90;63.30;;;;;;5027850;28;19923;-86
2023/03/11 14:24:27;;;;;;;;;;;15.90;63.50;;;;;;5026256;28;20225;-86
2023/03/11 14:27:16;;;;;;;;;;;15.80;63.50;;;;;;5028813;28;20253;-86
2023/03/11 14:29:43;;;;;;;;;;;15.80;63.50;;;;;;5016771;28;19909;-87